Time;durP1;ratioP1;P1;durP2;ratioP2;P2;SDS_P1;SDS_P2;PMS_P1;PMS_P2;Temp;Humidity;BMP_temperature;BMP_pressure;BME280_temperature;BME280_humidity;BME280_pressure;Samples;Min_cycle;Max_cycle;Signal;HPM_P1;HPM_P2
2021/11/19 00:01:50;;;;;;;13.17;7.20;;;11.40;99.90;;;;;;4929496;28;20512;-87
2021/11/19 00:04:17;;;;;;;18.80;8.10;;;11.40;99.90;;;;;;4933531;28;20457;-87
2021/11/19 00:06:44;;;;;;;10.20;7.30;;;11.40;99.90;;;;;;4932648;28;21006;-87
2021/11/19 00:09:11;;;;;;;17.33;8.20;;;11.40;99.90;;;;;;4944207;28;20541;-86
2021/11/19 00:11:43;;;;;;;10.93;7.83;;;11.40;99.90;;;;;;4935342;28;20552;-86
2021/11/19 00:14:12;;;;;;;21.73;7.93;;;11.40;99.90;;;;;;4945699;28;20469;-87
2021/11/19 00:16:47;;;;;;;18.13;8.53;;;11.50;99.90;;;;;;4934592;28;21984;-90
2021/11/19 00:19:40;;;;;;;11.93;7.50;;;11.50;99.90;;;;;;4937808;28;20433;-88
2021/11/19 00:22:13;;;;;;;12.70;7.23;;;11.50;99.90;;;;;;4928149;28;20489;-83
2021/11/19 00:24:41;;;;;;;12.20;7.10;;;11.50;99.90;;;;;;4930146;28;20488;-88
2021/11/19 00:31:50;;;;;;;13.80;7.90;;;11.60;99.90;;;;;;4972759;23;20528;-87
2021/11/19 00:34:48;;;;;;;10.27;7.70;;;11.50;99.90;;;;;;4944155;28;20963;-87
2021/11/19 00:40:28;;;;;;;14.13;9.00;;;11.60;99.90;;;;;;4947554;28;20472;-86
2021/11/19 00:42:55;;;;;;;16.93;8.30;;;11.60;99.90;;;;;;4932038;28;20455;-85
2021/11/19 00:45:27;;;;;;;11.50;8.10;;;11.50;99.90;;;;;;4950321;28;21918;-87
2021/11/19 00:47:57;;;;;;;10.10;6.97;;;11.50;99.90;;;;;;4951079;28;20523;-85
2021/11/19 00:50:32;;;;;;;10.60;8.03;;;11.50;99.90;;;;;;4949214;28;22088;-87
2021/11/19 00:52:59;;;;;;;11.13;7.63;;;11.50;99.90;;;;;;4928537;28;20459;-88
2021/11/19 00:55:36;;;;;;;13.10;7.50;;;11.60;99.90;;;;;;4947799;28;20528;-84
2021/11/19 00:58:11;;;;;;;9.97;7.30;;;11.50;99.90;;;;;;4927597;28;20464;-87
2021/11/19 01:00:58;;;;;;;13.63;7.90;;;11.70;99.90;;;;;;4935316;28;20484;-87
2021/11/19 01:03:26;;;;;;;11.47;8.20;;;11.60;99.90;;;;;;4934903;28;20463;-87
2021/11/19 01:05:55;;;;;;;12.80;8.37;;;11.60;99.90;;;;;;4940662;28;20481;-86
2021/11/19 01:08:24;;;;;;;11.60;7.93;;;11.60;99.90;;;;;;4952443;28;20461;-86
2021/11/19 01:10:55;;;;;;;11.30;7.23;;;11.60;99.90;;;;;;4920752;28;20483;-86
2021/11/19 01:13:22;;;;;;;10.73;7.60;;;11.50;99.90;;;;;;4950053;28;20453;-86
2021/11/19 01:15:54;;;;;;;15.67;8.20;;;11.50;99.90;;;;;;4889883;28;20458;-88
2021/11/19 01:18:34;;;;;;;11.43;9.07;;;11.50;99.90;;;;;;4930089;28;20477;-86
2021/11/19 01:21:20;;;;;;;11.47;8.30;;;11.60;99.90;;;;;;4948761;28;20611;-86
2021/11/19 01:23:47;;;;;;;12.47;7.93;;;11.60;99.90;;;;;;4931028;28;20936;-86
2021/11/19 01:26:21;;;;;;;19.43;8.73;;;11.60;99.90;;;;;;4935131;28;20581;-87
2021/11/19 01:28:55;;;;;;;10.67;7.43;;;11.60;99.90;;;;;;4939234;28;20460;-86
2021/11/19 01:31:31;;;;;;;10.90;8.00;;;11.70;99.90;;;;;;4932528;28;20501;-87
2021/11/19 01:33:58;;;;;;;10.50;8.57;;;11.60;99.90;;;;;;4950037;28;20526;-85
2021/11/19 01:36:26;;;;;;;12.10;8.77;;;11.60;99.90;;;;;;4934041;28;21931;-87
2021/11/19 01:38:53;;;;;;;11.63;7.83;;;11.60;99.90;;;;;;4938606;28;20468;-84
2021/11/19 01:41:27;;;;;;;14.63;8.23;;;11.60;99.90;;;;;;4923496;28;20567;-88
2021/11/19 01:43:55;;;;;;;16.23;8.30;;;11.60;99.90;;;;;;4924187;28;20480;-87
2021/11/19 01:46:30;;;;;;;13.57;8.70;;;11.60;99.90;;;;;;4925524;28;20855;-87
2021/11/19 01:48:57;;;;;;;13.93;9.37;;;11.60;99.90;;;;;;4924279;28;20470;-86
2021/11/19 01:51:31;;;;;;;13.37;9.07;;;11.50;99.90;;;;;;4935030;28;20486;-87
2021/11/19 01:54:07;;;;;;;10.90;8.30;;;11.50;99.90;;;;;;4938117;28;20464;-87
2021/11/19 01:56:48;;;;;;;11.90;8.40;;;11.60;99.90;;;;;;4936653;28;20465;-86
2021/11/19 01:59:34;;;;;;;19.27;10.50;;;11.50;99.90;;;;;;4923457;28;20961;-85
2021/11/19 02:02:26;;;;;;;13.33;9.80;;;11.50;99.90;;;;;;4936345;28;20460;-87
2021/11/19 02:05:00;;;;;;;12.63;9.50;;;11.40;99.90;;;;;;4938439;28;20483;-86
2021/11/19 02:07:34;;;;;;;11.23;8.57;;;11.40;99.90;;;;;;4923394;28;20465;-86
2021/11/19 02:10:18;;;;;;;14.53;10.20;;;11.50;99.90;;;;;;4925079;28;20483;-85
2021/11/19 02:13:11;;;;;;;12.03;9.57;;;11.50;99.90;;;;;;4942168;28;20456;-87
2021/11/19 02:16:26;;;;;;;16.00;11.13;;;11.90;99.90;;;;;;4927903;28;20489;-85
2021/11/19 02:19:08;;;;;;;18.70;11.20;;;11.90;99.90;;;;;;4924612;28;20466;-88
2021/11/19 02:21:50;;;;;;;15.67;11.60;;;11.80;99.90;;;;;;4948627;28;20546;-89
2021/11/19 02:24:26;;;;;;;16.53;11.10;;;11.60;99.90;;;;;;4947216;28;20441;-88
2021/11/19 02:27:17;;;;;;;13.00;10.90;;;11.50;99.90;;;;;;4961600;28;20561;-89
2021/11/19 02:29:48;;;;;;;13.23;10.87;;;11.70;99.90;;;;;;4946677;28;20469;-87
2021/11/19 02:32:20;;;;;;;19.83;10.60;;;11.60;99.90;;;;;;4939225;28;20474;-87
2021/11/19 02:34:47;;;;;;;15.63;10.90;;;11.50;99.90;;;;;;4926639;28;20463;-88
2021/11/19 02:37:28;;;;;;;17.00;11.90;;;11.50;99.90;;;;;;4921974;28;20481;-86
2021/11/19 02:40:00;;;;;;;13.00;11.10;;;11.40;99.90;;;;;;4939664;28;20566;-87
2021/11/19 02:42:35;;;;;;;23.47;11.50;;;11.50;99.90;;;;;;4941758;28;21860;-87
2021/11/19 02:45:09;;;;;;;17.87;11.70;;;11.40;99.90;;;;;;4938533;28;20465;-86
2021/11/19 02:47:37;;;;;;;17.90;11.93;;;11.60;99.90;;;;;;4925515;28;21448;-87
2021/11/19 02:50:05;;;;;;;15.10;11.17;;;11.50;99.90;;;;;;4925716;28;20893;-87
2021/11/19 02:52:37;;;;;;;12.87;10.70;;;11.50;99.90;;;;;;4924788;28;20475;-86
2021/11/19 02:55:09;;;;;;;15.70;12.00;;;11.80;99.90;;;;;;4944431;28;20472;-89
2021/11/19 02:57:35;;;;;;;15.20;11.50;;;11.80;99.90;;;;;;4961341;28;20434;-89
2021/11/19 03:00:08;;;;;;;14.40;11.60;;;11.90;99.90;;;;;;4949576;28;20472;-88
2021/11/19 03:02:35;;;;;;;18.40;11.80;;;12.00;99.90;;;;;;4955450;28;20485;-87
2021/11/19 03:05:08;;;;;;;15.30;10.70;;;11.90;99.90;;;;;;4927258;28;20460;-87
2021/11/19 03:10:25;;;;;;;19.67;11.17;;;12.00;99.90;;;;;;4498856;23;10000963;-84
2021/11/19 03:12:52;;;;;;;16.27;10.70;;;11.90;99.90;;;;;;4941263;28;20193;-83
2021/11/19 03:15:29;;;;;;;19.63;11.40;;;12.10;99.90;;;;;;4930071;28;20465;-86
2021/11/19 03:17:56;;;;;;;20.00;11.63;;;12.10;99.90;;;;;;4919661;29;20453;-84
2021/11/19 03:20:25;;;;;;;15.40;9.40;;;12.10;99.90;;;;;;4904951;29;20863;-84
2021/11/19 03:22:54;;;;;;;14.70;10.43;;;12.00;99.90;;;;;;4556669;28;10000177;-83
2021/11/19 03:25:26;;;;;;;14.77;10.23;;;11.80;99.90;;;;;;4898484;29;20194;-83
2021/11/19 03:27:54;;;;;;;13.60;10.10;;;11.60;99.90;;;;;;4915405;29;20467;-83
2021/11/19 03:30:23;;;;;;;16.17;10.43;;;11.70;99.90;;;;;;4916952;28;20565;-84
2021/11/19 03:32:51;;;;;;;14.30;9.90;;;11.90;99.90;;;;;;4918212;28;22797;-84
2021/11/19 03:35:19;;;;;;;13.83;10.57;;;11.80;99.90;;;;;;4921638;29;20942;-84
2021/11/19 03:37:51;;;;;;;18.83;10.57;;;12.00;99.90;;;;;;4908809;29;20494;-83
2021/11/19 03:40:23;;;;;;;17.03;10.53;;;12.00;99.90;;;;;;4921822;28;20484;-84
2021/11/19 03:42:50;;;;;;;14.40;9.90;;;11.90;99.90;;;;;;4922689;29;20460;-85
2021/11/19 03:45:20;;;;;;;14.97;10.20;;;11.80;99.90;;;;;;4924003;29;21001;-84
2021/11/19 03:47:51;;;;;;;15.90;10.20;;;11.80;99.90;;;;;;4922757;29;22231;-84
2021/11/19 03:50:47;;;;;;;13.60;8.70;;;11.70;99.90;;;;;;4906627;29;20706;-85
2021/11/19 03:53:15;;;;;;;13.40;8.67;;;11.60;99.90;;;;;;4902627;29;20466;-84
2021/11/19 03:55:46;;;;;;;17.50;9.00;;;11.80;99.90;;;;;;4908746;29;20469;-84
2021/11/19 03:58:16;;;;;;;13.57;9.17;;;11.80;99.90;;;;;;4907414;29;20465;-83
2021/11/19 04:00:50;;;;;;;13.60;10.23;;;11.80;99.90;;;;;;4907782;29;20489;-83
2021/11/19 04:03:18;;;;;;;11.80;8.70;;;11.60;99.90;;;;;;4908539;29;20456;-84
2021/11/19 04:05:46;;;;;;;10.70;8.10;;;11.70;99.90;;;;;;4913245;28;20457;-85
2021/11/19 04:08:13;;;;;;;10.23;8.13;;;11.70;99.90;;;;;;4924964;28;20446;-84
2021/11/19 04:10:41;;;;;;;10.60;8.10;;;11.80;99.90;;;;;;4898902;29;21085;-83
2021/11/19 04:13:08;;;;;;;9.07;7.80;;;11.80;99.90;;;;;;4916647;29;20450;-83
2021/11/19 04:15:39;;;;;;;16.33;8.87;;;11.80;99.90;;;;;;4900511;29;21100;-85
2021/11/19 04:18:06;;;;;;;9.67;8.07;;;11.70;99.90;;;;;;4902971;29;20546;-84
2021/11/19 04:20:33;;;;;;;8.83;7.87;;;11.70;99.90;;;;;;4902951;29;20491;-84
2021/11/19 04:23:00;;;;;;;11.50;8.10;;;11.80;99.90;;;;;;4918729;28;20460;-84
2021/11/19 04:25:30;;;;;;;11.30;7.30;;;11.70;99.90;;;;;;4905428;29;20466;-86
2021/11/19 04:27:57;;;;;;;8.60;7.53;;;11.80;99.90;;;;;;4918063;28;20463;-85
2021/11/19 04:30:31;;;;;;;10.50;8.50;;;11.90;99.90;;;;;;4906732;29;20840;-83
2021/11/19 04:32:58;;;;;;;11.63;8.10;;;11.90;99.90;;;;;;4919691;29;20448;-84
2021/11/19 04:35:26;;;;;;;11.43;8.10;;;11.80;99.90;;;;;;4918937;28;20470;-84
2021/11/19 04:37:53;;;;;;;10.73;7.20;;;11.80;99.90;;;;;;4918775;29;21005;-84
2021/11/19 04:40:21;;;;;;;10.23;7.60;;;11.80;99.90;;;;;;4922836;28;20477;-85
2021/11/19 04:42:48;;;;;;;10.90;8.50;;;11.80;99.90;;;;;;4901568;29;20984;-86
2021/11/19 04:45:19;;;;;;;11.23;8.10;;;11.70;99.90;;;;;;4921196;29;20472;-84
2021/11/19 04:47:48;;;;;;;11.87;9.10;;;11.70;99.90;;;;;;4920673;29;20494;-85
2021/11/19 04:50:17;;;;;;;11.37;7.53;;;11.70;99.90;;;;;;4920243;28;20469;-86
2021/11/19 04:52:44;;;;;;;12.43;7.90;;;11.80;99.90;;;;;;4908149;29;20476;-84
2021/11/19 04:55:13;;;;;;;10.70;7.50;;;11.80;99.90;;;;;;4902945;29;20830;-84
2021/11/19 04:57:40;;;;;;;8.63;7.00;;;11.90;99.90;;;;;;4904685;29;20465;-87
2021/11/19 05:00:22;;;;;;;9.50;8.20;;;11.80;99.90;;;;;;4919318;28;21037;-85
2021/11/19 05:03:01;;;;;;;9.53;7.60;;;12.00;99.90;;;;;;4917974;28;20465;-85
2021/11/19 05:05:30;;;;;;;11.03;8.20;;;11.90;99.90;;;;;;4924654;29;20468;-84
2021/11/19 05:07:57;;;;;;;10.77;6.90;;;11.80;99.90;;;;;;4927613;29;20458;-85
2021/11/19 05:10:24;;;;;;;10.70;8.67;;;12.00;99.90;;;;;;4923605;28;20594;-85
2021/11/19 05:12:54;;;;;;;10.90;8.30;;;12.10;99.90;;;;;;4908108;29;20476;-86
2021/11/19 05:15:21;;;;;;;9.07;7.33;;;12.10;99.90;;;;;;4919677;29;20548;-86
2021/11/19 05:17:48;;;;;;;11.60;7.50;;;12.10;99.90;;;;;;4908224;28;20444;-85
2021/11/19 05:20:20;;;;;;;12.10;8.23;;;12.10;99.90;;;;;;4920016;28;20486;-85
2021/11/19 05:22:48;;;;;;;14.50;9.63;;;12.10;99.90;;;;;;4905602;29;21803;-85
2021/11/19 05:25:26;;;;;;;11.37;7.90;;;12.20;99.90;;;;;;4905722;29;20449;-86
2021/11/19 05:28:08;;;;;;;12.43;9.17;;;12.10;99.90;;;;;;4918754;29;20477;-86
2021/11/19 05:30:35;;;;;;;8.83;6.90;;;12.00;99.90;;;;;;4907673;29;21202;-86
2021/11/19 05:33:15;;;;;;;9.83;7.80;;;12.00;99.90;;;;;;4924223;29;20464;-85
2021/11/19 05:35:49;;;;;;;10.17;8.07;;;12.00;99.90;;;;;;4914791;29;20456;-85
2021/11/19 05:41:15;;;;;;;11.77;8.37;;;12.10;99.90;;;;;;4980486;23;20512;-85
2021/11/19 05:43:52;;;;;;;9.83;7.97;;;12.00;99.90;;;;;;4929533;28;20529;-84
2021/11/19 05:46:48;;;;;;;10.63;8.50;;;11.80;99.90;;;;;;4967972;28;20685;-84
2021/11/19 05:52:16;;;;;;;9.70;8.27;;;12.10;99.90;;;;;;4925095;28;20600;-86
2021/11/19 05:54:45;;;;;;;9.70;8.40;;;12.20;99.90;;;;;;4942760;28;20457;-85
2021/11/19 05:57:17;;;;;;;13.30;8.47;;;12.00;99.90;;;;;;4947471;28;20450;-86
2021/11/19 05:59:47;;;;;;;10.57;8.17;;;12.20;99.90;;;;;;4943689;28;20469;-86
2021/11/19 06:02:29;;;;;;;11.60;8.43;;;12.00;99.90;;;;;;4955455;28;20446;-84
2021/11/19 06:05:01;;;;;;;12.10;8.83;;;12.10;99.90;;;;;;4929002;28;20494;-85
2021/11/19 06:07:38;;;;;;;13.07;9.73;;;12.00;99.90;;;;;;4920045;28;20477;-86
2021/11/19 06:10:09;;;;;;;12.37;9.23;;;11.90;99.90;;;;;;4922887;28;20477;-87
2021/11/19 06:12:55;;;;;;;11.77;9.40;;;12.00;99.90;;;;;;4922005;28;20453;-83
2021/11/19 06:15:30;;;;;;;11.73;9.27;;;11.90;99.90;;;;;;4922630;28;20449;-85
2021/11/19 06:18:08;;;;;;;12.70;8.50;;;11.90;99.90;;;;;;4923162;28;20957;-83
2021/11/19 06:20:41;;;;;;;10.90;8.40;;;11.80;99.90;;;;;;4934204;28;20474;-85
2021/11/19 06:23:12;;;;;;;12.00;8.70;;;11.70;99.90;;;;;;4924517;28;20491;-84
2021/11/19 06:26:10;;;;;;;12.27;8.50;;;11.60;99.90;;;;;;4920222;28;21926;-86
2021/11/19 06:28:41;;;;;;;10.77;9.13;;;11.60;99.90;;;;;;4934753;28;20476;-86
2021/11/19 06:31:22;;;;;;;11.80;9.17;;;11.60;99.90;;;;;;4917711;28;20549;-86
2021/11/19 06:33:49;;;;;;;11.20;9.03;;;11.60;99.90;;;;;;4921959;28;20448;-84
2021/11/19 06:36:22;;;;;;;10.33;9.10;;;11.60;99.90;;;;;;4920083;28;20549;-84
2021/11/19 06:38:50;;;;;;;9.37;8.13;;;11.60;99.90;;;;;;4919322;28;20580;-84
2021/11/19 06:41:21;;;;;;;12.77;9.03;;;11.80;99.90;;;;;;4921077;28;20533;-85
2021/11/19 06:43:48;;;;;;;12.70;10.10;;;12.00;99.90;;;;;;4919989;28;20459;-83
2021/11/19 06:46:16;;;;;;;11.90;9.90;;;11.90;99.90;;;;;;4919276;28;20481;-84
2021/11/19 06:48:56;;;;;;;12.53;9.73;;;11.80;99.90;;;;;;4921714;28;20469;-83
2021/11/19 06:51:57;;;;;;;15.93;10.60;;;12.10;99.90;;;;;;4921441;28;20440;-84
2021/11/19 06:54:50;;;;;;;13.73;10.90;;;12.20;99.90;;;;;;4926442;28;20500;-83
2021/11/19 06:57:19;;;;;;;12.43;10.07;;;12.30;99.90;;;;;;4937719;28;20468;-84
2021/11/19 06:59:46;;;;;;;14.57;9.90;;;12.20;99.90;;;;;;4922619;28;20587;-85
2021/11/19 07:02:13;;;;;;;15.50;10.20;;;12.10;99.90;;;;;;4922333;28;20977;-85
2021/11/19 07:04:40;;;;;;;11.60;9.63;;;11.90;99.90;;;;;;4923740;28;20465;-83
2021/11/19 07:07:17;;;;;;;10.90;9.23;;;11.80;99.90;;;;;;4925209;28;20489;-84
2021/11/19 07:09:45;;;;;;;11.80;9.07;;;11.70;99.90;;;;;;4924711;28;20469;-87
2021/11/19 07:12:14;;;;;;;11.03;8.97;;;11.60;99.90;;;;;;4927124;28;20796;-84
2021/11/19 07:14:46;;;;;;;15.70;9.70;;;11.60;99.90;;;;;;4918659;28;22536;-83
2021/11/19 07:17:13;;;;;;;13.57;9.67;;;11.60;99.90;;;;;;4920015;28;20465;-85
2021/11/19 07:19:41;;;;;;;12.57;9.40;;;11.60;99.90;;;;;;4922209;28;20577;-85
2021/11/19 07:22:11;;;;;;;12.20;9.10;;;11.60;99.90;;;;;;4920356;28;20465;-85
2021/11/19 07:24:39;;;;;;;12.03;9.50;;;11.60;99.90;;;;;;4921638;28;20449;-84
2021/11/19 07:27:07;;;;;;;10.47;9.20;;;11.70;99.90;;;;;;4920758;28;22368;-86
2021/11/19 07:29:44;;;;;;;11.10;8.83;;;11.60;99.90;;;;;;4920847;28;20495;-86
2021/11/19 07:32:11;;;;;;;11.57;8.20;;;11.60;99.90;;;;;;4921635;28;20541;-85
2021/11/19 07:34:58;;;;;;;10.80;8.03;;;11.60;99.90;;;;;;4913560;28;20796;-85
2021/11/19 07:40:58;;;;;;;9.93;7.70;;;11.60;99.90;;;;;;4944900;28;20566;-86
2021/11/19 07:43:32;;;;;;;10.73;8.03;;;11.60;99.90;;;;;;4938093;28;20456;-83
2021/11/19 07:45:59;;;;;;;11.90;8.87;;;11.90;99.90;;;;;;4939811;28;20947;-85
2021/11/19 07:51:17;;;;;;;8.20;7.50;;;11.90;99.90;;;;;;4984773;28;22092;-86
2021/11/19 07:53:54;;;;;;;7.93;7.13;;;11.90;99.90;;;;;;4978868;28;20528;-87
2021/11/19 07:56:30;;;;;;;12.30;7.90;;;11.80;99.90;;;;;;4980834;28;21195;-85
2021/11/19 07:59:04;;;;;;;9.80;7.87;;;11.80;99.90;;;;;;4965516;28;20477;-84
2021/11/19 08:01:37;;;;;;;9.20;8.27;;;11.70;99.90;;;;;;4982151;28;20449;-85
2021/11/19 08:04:05;;;;;;;11.53;8.30;;;12.10;99.90;;;;;;4967065;28;20967;-84
2021/11/19 08:06:40;;;;;;;11.97;8.30;;;12.30;99.90;;;;;;4977791;28;20447;-86
2021/11/19 08:09:08;;;;;;;9.90;8.10;;;12.40;99.90;;;;;;4979776;28;20474;-88
2021/11/19 08:11:37;;;;;;;9.97;7.13;;;12.20;99.90;;;;;;4985078;28;20498;-84
2021/11/19 08:14:10;;;;;;;10.43;8.40;;;12.10;99.90;;;;;;4987516;28;20838;-85
2021/11/19 08:17:19;;;;;;;10.87;8.17;;;12.20;99.90;;;;;;4964623;28;20776;-85
2021/11/19 08:19:51;;;;;;;10.60;8.10;;;12.20;99.90;;;;;;4985057;28;20959;-85
2021/11/19 08:22:18;;;;;;;9.90;7.93;;;12.00;99.90;;;;;;4985485;28;20486;-85
2021/11/19 08:25:08;;;;;;;8.03;7.23;;;11.90;99.90;;;;;;4966212;28;20455;-84
2021/11/19 08:27:48;;;;;;;8.20;7.40;;;11.90;99.90;;;;;;4986362;28;20531;-84
2021/11/19 08:30:23;;;;;;;9.03;8.03;;;11.80;99.90;;;;;;4986979;28;20987;-86
2021/11/19 08:33:24;;;;;;;9.93;7.53;;;11.80;99.90;;;;;;4963536;28;20466;-86
2021/11/19 08:35:57;;;;;;;8.13;7.33;;;11.70;99.90;;;;;;4988657;28;20526;-86
2021/11/19 08:38:26;;;;;;;9.00;7.50;;;11.70;99.90;;;;;;5005078;28;20448;-86
2021/11/19 08:40:54;;;;;;;10.67;8.17;;;11.70;99.90;;;;;;4989725;28;20434;-84
2021/11/19 08:43:28;;;;;;;9.20;8.20;;;11.70;99.90;;;;;;4989794;28;20436;-86
2021/11/19 08:46:04;;;;;;;7.90;7.17;;;11.70;99.90;;;;;;4988710;28;20453;-86
2021/11/19 08:48:34;;;;;;;9.03;7.20;;;11.70;99.90;;;;;;4973159;28;21017;-85
2021/11/19 08:51:05;;;;;;;8.83;7.57;;;11.80;99.90;;;;;;4988072;28;20465;-86
2021/11/19 08:53:53;;;;;;;10.70;7.60;;;11.80;99.90;;;;;;4972958;28;20443;-85
2021/11/19 08:56:32;;;;;;;11.23;7.80;;;11.80;99.90;;;;;;4986534;28;20459;-85
2021/11/19 08:59:13;;;;;;;8.83;7.50;;;11.90;99.90;;;;;;4970995;28;20474;-84
2021/11/19 09:01:44;;;;;;;13.13;8.27;;;11.90;99.90;;;;;;4968575;28;20470;-84
2021/11/19 09:07:24;;;;;;;10.17;7.77;;;12.00;99.90;;;;;;5132607;23;20465;-86
2021/11/19 09:10:27;;;;;;;9.00;8.10;;;12.20;99.90;;;;;;4971668;23;20500;-84
2021/11/19 09:12:54;;;;;;;9.70;8.10;;;12.10;99.90;;;;;;4999031;23;20581;-83
2021/11/19 09:15:36;;;;;;;8.37;7.50;;;12.20;99.90;;;;;;4952378;28;20481;-85
2021/11/19 09:21:08;;;;;;;8.43;7.33;;;12.10;99.90;;;;;;4947529;28;20471;-85
2021/11/19 09:27:26;;;;;;;8.63;7.73;;;12.10;99.90;;;;;;5051075;23;22069;-85
2021/11/19 09:30:37;;;;;;;10.27;8.13;;;12.10;99.90;;;;;;5124383;23;20532;-83
2021/11/19 09:33:50;;;;;;;10.20;7.80;;;12.10;99.90;;;;;;4877201;29;20454;-86
2021/11/19 09:36:18;;;;;;;8.50;7.50;;;12.20;99.90;;;;;;4984363;28;20459;-84
2021/11/19 09:38:46;;;;;;;8.33;7.53;;;12.10;99.90;;;;;;5068205;23;20492;-83
2021/11/19 09:41:59;;;;;;;8.20;7.40;;;12.10;99.90;;;;;;4910282;29;20461;-84
2021/11/19 09:45:13;;;;;;;8.53;7.63;;;12.10;99.90;;;;;;4930635;28;20460;-84
2021/11/19 09:48:13;;;;;;;8.37;7.57;;;12.10;99.90;;;;;;4913497;29;20524;-85
2021/11/19 09:51:34;;;;;;;10.07;8.40;;;12.10;99.90;;;;;;4926136;28;20491;-85
2021/11/19 09:54:17;;;;;;;8.30;7.47;;;12.10;99.90;;;;;;4907282;29;21421;-86
2021/11/19 09:56:53;;;;;;;9.37;7.70;;;12.10;99.90;;;;;;4926101;28;20460;-85
2021/11/19 10:03:36;;;;;;;7.60;6.80;;;12.10;99.90;;;;;;4778950;29;20461;-86
2021/11/19 10:10:52;;;;;;;7.60;6.80;;;12.10;99.90;;;;;;4873147;29;20474;-84
2021/11/19 10:13:27;;;;;;;6.63;6.03;;;12.10;99.90;;;;;;4872121;29;20469;-84
2021/11/19 10:16:53;;;;;;;6.40;5.50;;;12.10;99.90;;;;;;4869153;29;21008;-84
2021/11/19 10:23:06;;;;;;;6.53;5.80;;;12.00;99.90;;;;;;5027114;28;20517;-84
2021/11/19 10:25:49;;;;;;;6.20;5.60;;;12.10;99.90;;;;;;5001747;28;20481;-84
2021/11/19 10:30:56;;;;;;;6.30;5.70;;;12.10;99.90;;;;;;4965870;28;20486;-87
2021/11/19 10:33:45;;;;;;;6.90;6.30;;;12.10;99.90;;;;;;4966733;28;20494;-84
2021/11/19 10:37:05;;;;;;;5.60;5.10;;;12.10;99.90;;;;;;4965968;28;22936;-86
2021/11/19 10:40:12;;;;;;;5.80;5.30;;;12.10;99.90;;;;;;4965850;28;20483;-86
2021/11/19 10:51:02;;;;;;;5.90;5.33;;;12.20;99.90;;;;;;4947126;28;20951;-85
2021/11/19 10:54:22;;;;;;;5.70;5.20;;;12.10;99.90;;;;;;4926238;28;20451;-86
2021/11/19 10:57:08;;;;;;;8.03;4.83;;;12.10;99.90;;;;;;4973273;28;20469;-84
2021/11/19 10:59:58;;;;;;;6.07;5.47;;;12.10;99.90;;;;;;4983484;22;20503;-85
2021/11/19 11:02:34;;;;;;;6.60;5.93;;;12.10;99.90;;;;;;4951340;28;20502;-84
2021/11/19 11:05:26;;;;;;;6.00;4.87;;;12.10;99.90;;;;;;4916059;28;20463;-85
2021/11/19 11:08:21;;;;;;;6.07;5.57;;;12.20;99.90;;;;;;4930443;28;20579;-85
2021/11/19 11:11:09;;;;;;;6.77;5.10;;;12.20;99.90;;;;;;4929888;28;20492;-83
2021/11/19 11:13:46;;;;;;;6.13;5.23;;;12.20;99.90;;;;;;4913496;28;22049;-81
2021/11/19 11:16:27;;;;;;;5.80;5.17;;;12.20;99.90;;;;;;4906012;29;20980;-83
2021/11/19 11:19:00;;;;;;;5.43;4.93;;;12.20;99.90;;;;;;4908627;28;20491;-86
2021/11/19 11:25:34;;;;;;;5.87;5.27;;;12.20;99.90;;;;;;4895450;29;20442;-84
2021/11/19 11:28:18;;;;;;;5.50;5.00;;;12.30;99.90;;;;;;4925291;28;20485;-83
2021/11/19 11:31:12;;;;;;;6.13;5.53;;;12.30;99.90;;;;;;4945066;28;20903;-83
2021/11/19 11:33:56;;;;;;;6.50;5.80;;;12.30;99.90;;;;;;4944863;28;20444;-86
2021/11/19 11:36:55;;;;;;;6.33;5.73;;;12.30;99.90;;;;;;4930523;28;20457;-83
2021/11/19 11:39:54;;;;;;;8.77;6.10;;;12.30;99.90;;;;;;4912685;29;20488;-82
2021/11/19 11:42:48;;;;;;;6.07;5.47;;;12.30;99.90;;;;;;4928802;28;20553;-85
2021/11/19 11:45:30;;;;;;;7.90;5.50;;;12.30;99.90;;;;;;4905290;29;21821;-86
2021/11/19 11:48:35;;;;;;;9.00;6.07;;;12.40;99.90;;;;;;4927895;28;20484;-84
2021/11/19 11:51:41;;;;;;;9.00;5.83;;;12.30;99.90;;;;;;4926300;28;20457;-84
2021/11/19 11:54:31;;;;;;;6.73;6.03;;;12.40;99.90;;;;;;4883199;28;21029;-84
2021/11/19 11:57:31;;;;;;;9.27;8.37;;;12.40;99.90;;;;;;4893695;28;20450;-86
2021/11/19 12:00:08;;;;;;;8.13;7.30;;;12.40;99.90;;;;;;4917313;28;20525;-86
2021/11/19 12:03:08;;;;;;;8.33;7.43;;;12.40;99.90;;;;;;4914527;28;20484;-85
2021/11/19 12:06:26;;;;;;;9.60;7.77;;;12.40;99.90;;;;;;4942959;28;20466;-87
2021/11/19 12:09:21;;;;;;;8.43;7.40;;;12.40;99.90;;;;;;4934682;28;20509;-85
2021/11/19 12:12:26;;;;;;;8.20;7.20;;;12.40;99.90;;;;;;4915175;28;20497;-85
2021/11/19 12:15:04;;;;;;;8.63;7.13;;;12.40;99.90;;;;;;4934398;28;20461;-86
2021/11/19 12:17:43;;;;;;;9.97;7.90;;;12.40;99.90;;;;;;4933934;28;20981;-86
2021/11/19 12:20:45;;;;;;;10.67;8.53;;;12.40;99.90;;;;;;4927018;28;20570;-84
2021/11/19 12:23:23;;;;;;;8.90;8.00;;;12.40;99.90;;;;;;4921257;29;20800;-84
2021/11/19 12:26:11;;;;;;;10.23;8.63;;;12.40;99.90;;;;;;4921869;28;20528;-83
2021/11/19 12:28:48;;;;;;;14.07;8.87;;;12.40;99.90;;;;;;4939000;28;20583;-83
2021/11/19 12:31:40;;;;;;;10.50;8.97;;;12.40;99.90;;;;;;4942122;28;20457;-83
2021/11/19 12:34:23;;;;;;;9.77;8.73;;;12.50;99.90;;;;;;4944219;28;20464;-82
2021/11/19 12:37:09;;;;;;;11.00;9.57;;;12.40;99.90;;;;;;4930127;28;20526;-84
2021/11/19 12:39:39;;;;;;;11.57;8.97;;;12.50;99.90;;;;;;4926008;28;21045;-84
2021/11/19 12:42:18;;;;;;;10.40;9.30;;;12.50;99.90;;;;;;4920822;29;20495;-84
2021/11/19 12:44:53;;;;;;;10.23;8.87;;;12.50;99.90;;;;;;4937778;28;20453;-84
2021/11/19 12:47:59;;;;;;;11.27;9.47;;;12.50;99.90;;;;;;4917591;29;20599;-82
2021/11/19 12:50:52;;;;;;;10.23;9.17;;;12.50;99.90;;;;;;4929714;28;20985;-84
2021/11/19 12:53:41;;;;;;;13.93;9.73;;;12.50;99.90;;;;;;4932452;28;20441;-83
2021/11/19 12:56:16;;;;;;;11.97;10.80;;;12.50;99.90;;;;;;4920974;29;20453;-85
2021/11/19 12:59:12;;;;;;;9.37;8.47;;;12.50;99.90;;;;;;4932989;28;20825;-85
2021/11/19 13:01:57;;;;;;;10.80;9.47;;;12.60;99.90;;;;;;4918117;28;20473;-84
2021/11/19 13:04:37;;;;;;;13.87;11.40;;;12.60;99.90;;;;;;4932834;28;20477;-85
2021/11/19 13:07:07;;;;;;;12.97;9.57;;;12.60;99.90;;;;;;4915685;29;20548;-84
2021/11/19 13:09:45;;;;;;;12.70;10.37;;;12.60;99.90;;;;;;4929446;28;20497;-84
2021/11/19 13:12:32;;;;;;;13.53;10.40;;;12.60;99.90;;;;;;4921599;28;20965;-84
2021/11/19 13:15:19;;;;;;;11.27;9.63;;;12.60;99.90;;;;;;4924229;28;20817;-84
2021/11/19 13:18:15;;;;;;;9.90;8.70;;;12.60;99.90;;;;;;4928492;28;20533;-83
2021/11/19 13:20:47;;;;;;;13.73;9.77;;;12.60;99.90;;;;;;4942201;28;20516;-84
2021/11/19 13:23:35;;;;;;;16.77;12.97;;;12.60;99.90;;;;;;4942533;28;20543;-84
2021/11/19 13:26:14;;;;;;;10.53;9.43;;;12.60;99.90;;;;;;4910220;29;20544;-80
2021/11/19 13:29:08;;;;;;;11.30;10.13;;;12.60;99.90;;;;;;4904488;28;21595;-82
2021/11/19 13:31:40;;;;;;;10.97;9.90;;;12.70;99.90;;;;;;4910765;28;20456;-81
2021/11/19 13:34:07;;;;;;;18.40;10.70;;;12.60;99.90;;;;;;4922901;28;20547;-81
2021/11/19 13:36:50;;;;;;;12.30;10.07;;;12.60;99.90;;;;;;4906295;28;20986;-81
2021/11/19 13:39:26;;;;;;;11.60;10.30;;;12.60;99.90;;;;;;4919920;28;20473;-82
2021/11/19 13:42:08;;;;;;;10.40;9.40;;;12.70;99.90;;;;;;4905248;28;20496;-81
2021/11/19 13:44:55;;;;;;;14.47;11.20;;;12.70;99.90;;;;;;4921239;28;20458;-81
2021/11/19 13:47:37;;;;;;;12.20;10.90;;;12.70;99.90;;;;;;4920750;28;20532;-81
2021/11/19 13:50:16;;;;;;;12.13;9.40;;;12.60;99.90;;;;;;4902950;29;20553;-81
2021/11/19 13:52:58;;;;;;;13.37;11.97;;;12.70;99.90;;;;;;4939128;28;20581;-80
2021/11/19 13:55:53;;;;;;;11.53;10.37;;;12.70;99.90;;;;;;4928336;28;20448;-82
2021/11/19 13:58:42;;;;;;;11.10;10.07;;;12.70;99.90;;;;;;4899717;29;20485;-80
2021/11/19 14:01:28;;;;;;;12.97;11.10;;;12.70;99.90;;;;;;4917929;28;20449;-83
2021/11/19 14:03:57;;;;;;;10.40;9.30;;;12.70;99.90;;;;;;4918608;28;20445;-83
2021/11/19 14:06:58;;;;;;;11.90;10.37;;;12.70;99.90;;;;;;4893727;29;20454;-82
2021/11/19 14:09:38;;;;;;;17.10;11.30;;;12.70;99.90;;;;;;4916604;28;20875;-81
2021/11/19 14:12:05;;;;;;;12.67;10.53;;;12.70;99.90;;;;;;4917374;28;20588;-82
2021/11/19 14:14:36;;;;;;;13.07;10.27;;;12.70;99.90;;;;;;4911654;28;20569;-83
2021/11/19 14:17:06;;;;;;;13.90;11.10;;;12.70;99.90;;;;;;4916623;28;20454;-83
2021/11/19 14:22:31;;;;;;;12.33;10.73;;;12.70;99.90;;;;;;4918245;28;20507;-82
2021/11/19 14:25:07;;;;;;;17.93;13.20;;;12.70;99.90;;;;;;4917486;28;20469;-82
2021/11/19 14:27:37;;;;;;;13.23;10.70;;;12.70;99.90;;;;;;4916405;28;20473;-82
2021/11/19 14:30:34;;;;;;;12.50;10.67;;;12.70;99.90;;;;;;4919537;28;20480;-82
2021/11/19 14:33:34;;;;;;;12.93;11.63;;;12.70;99.90;;;;;;4902290;29;20465;-83
2021/11/19 14:36:20;;;;;;;13.40;11.43;;;12.70;99.90;;;;;;4916291;28;20465;-82